Yoshino Maru — JD3379 — position and weather

sailwx.info

Track history (hours):
 
Tides and Currents Weather Stations Pressure Air Temp Water Temp Dewpoint Dewpoint Depression Visibility Wind Speed Wind Dir Waves Ship Positions

Yoshino Maru

Last reported at 2018-Jan-20 13:00 UTC. Time now 2018-Jan-20 13:11 UTC.
Position N 35°27' E 139°39'.

Length 30 m.

Type: Tug. MMSI: 431003749.

Date/timePositionNaut miles runAvg speedWind from/ knotsBaromVisibWave heightAir tempDewpointWater temp
2018-Jan-20 13:00N 35°27' E 139°39'0 0.0
2018-Jan-20 12:30N 35°27' E 139°39'0 0.0
2018-Jan-20 12:00N 35°27' E 139°39'0 0.0
2018-Jan-20 11:30N 35°27' E 139°39'0 0.0
2018-Jan-20 11:01N 35°27' E 139°39'0 0.0
2018-Jan-20 10:30N 35°27' E 139°39'0 0.0
2018-Jan-20 10:00N 35°27' E 139°39'0 0.0
2018-Jan-20 09:30N 35°27' E 139°39'0 0.0
2018-Jan-20 09:00N 35°27' E 139°39'0 0.0
2018-Jan-20 08:30N 35°27' E 139°39'0 0.0
2018-Jan-20 08:00N 35°27' E 139°39'0 0.0
2018-Jan-20 07:31N 35°27' E 139°39'0 0.0
2018-Jan-20 07:00N 35°27' E 139°39'0 0.0
2018-Jan-20 06:30N 35°27' E 139°39'0 0.0
2018-Jan-20 06:00N 35°27' E 139°39'0 0.0
2018-Jan-20 05:30N 35°27' E 139°39'1 2.2
2018-Jan-20 05:00N 35°27' E 139°40'4 7.9
2018-Jan-20 04:30N 35°24' E 139°41'1 1.4
2018-Jan-20 04:00N 35°24' E 139°41'1 3.0
2018-Jan-20 03:31N 35°23' E 139°41'1 1.3
2018-Jan-20 03:00N 35°23' E 139°41'0 0.0
2018-Jan-20 02:30N 35°23' E 139°41'2 4.5
2018-Jan-20 02:00N 35°25' E 139°39'0 0.1
2018-Jan-20 01:30N 35°24' E 139°39'0 1.0
2018-Jan-20 01:00N 35°24' E 139°39'2 4.4
2018-Jan-20 00:30N 35°23' E 139°41'1 1.3
2018-Jan-20 00:01N 35°23' E 139°41'0 0.0
2018-Jan-19 23:30N 35°23' E 139°41'1 2.8
2018-Jan-19 23:00N 35°24' E 139°42'2 3.4
2018-Jan-19 22:30N 35°25' E 139°41'1 2.0
2018-Jan-19 22:01N 35°25' E 139°42'1 1.1
2018-Jan-19 21:31N 35°26' E 139°42'3 6.1
2018-Jan-19 21:00N 35°27' E 139°39'0 0.0
2018-Jan-19 20:30N 35°27' E 139°39'0 0.0
2018-Jan-19 20:01N 35°27' E 139°39'0 0.0
2018-Jan-19 19:30N 35°27' E 139°39'0 0.0
2018-Jan-19 19:00N 35°27' E 139°39'0 0.0
2018-Jan-19 18:30N 35°27' E 139°39'0 0.0
2018-Jan-19 18:00N 35°27' E 139°39'0 0.0
2018-Jan-19 17:30N 35°27' E 139°39'0 0.0
2018-Jan-19 17:00N 35°27' E 139°39'0 0.0
2018-Jan-19 16:30N 35°27' E 139°39'0 0.0
2018-Jan-19 16:00N 35°27' E 139°39'0 0.0
2018-Jan-19 15:30N 35°27' E 139°39'0 0.0
2018-Jan-19 15:00N 35°27' E 139°39'0 0.0
2018-Jan-19 14:30N 35°27' E 139°39'0 0.0
2018-Jan-19 14:01N 35°27' E 139°39'0 0.0
2018-Jan-19 13:30N 35°27' E 139°39'0 0.0
2018-Jan-19 13:00N 35°27' E 139°39'0 0.0
2018-Jan-19 12:30N 35°27' E 139°39'0 0.0
2018-Jan-19 12:00N 35°27' E 139°39'0 0.0
2018-Jan-19 11:30N 35°27' E 139°39'0 0.0
2018-Jan-19 11:00N 35°27' E 139°39'0 0.0
2018-Jan-19 10:30N 35°27' E 139°39'0 0.0
2018-Jan-19 10:00N 35°27' E 139°39'0 0.0
2018-Jan-19 09:30N 35°27' E 139°39'0 0.0
2018-Jan-19 09:01N 35°27' E 139°39'0 0.0
2018-Jan-19 08:30N 35°27' E 139°39'2 3.8
2018-Jan-19 08:00N 35°27' E 139°41'0 0.1
2018-Jan-19 07:31N 35°27' E 139°41'2 3.9
2018-Jan-19 07:01N 35°27' E 139°39'0 0.0
2018-Jan-19 06:30N 35°27' E 139°39'0 0.0
2018-Jan-19 06:01N 35°27' E 139°39'0 0.0
2018-Jan-19 05:30N 35°27' E 139°39'0 0.0
2018-Jan-19 05:00N 35°27' E 139°39'0 0.0
2018-Jan-19 04:31N 35°27' E 139°39'0 0.0
2018-Jan-19 04:00N 35°27' E 139°39'0 0.0
2018-Jan-19 03:30N 35°27' E 139°39'0 0.0
2018-Jan-19 03:01N 35°27' E 139°39'0 0.0
2018-Jan-19 02:30N 35°27' E 139°39'0 0.0
2018-Jan-19 02:00N 35°27' E 139°39'4 8.1
2018-Jan-19 01:30N 35°26' E 139°43'612.3
2018-Jan-19 01:01N 35°29' E 139°49'2 4.2
2018-Jan-19 00:30N 35°29' E 139°52'5 9.5
2018-Jan-19 00:00N 35°25' E 139°48'510.5
2018-Jan-18 23:30N 35°21' E 139°45'5 9.1
2018-Jan-18 23:00N 35°16' E 139°46'5 9.8
2018-Jan-18 22:30N 35°12' E 139°47'0 0.1
2018-Jan-18 22:00N 35°11' E 139°47'5 9.9
2018-Jan-18 21:30N 35°16' E 139°45'5 9.8
2018-Jan-18 21:01N 35°20' E 139°41'5 9.8
2018-Jan-18 20:31N 35°25' E 139°42'4 7.2
2018-Jan-18 20:00N 35°27' E 139°39'0 0.0
2018-Jan-18 19:30N 35°27' E 139°39'0 0.0
2018-Jan-18 19:00N 35°27' E 139°39'0 0.0
2018-Jan-18 18:30N 35°27' E 139°39'0 0.0
2018-Jan-18 18:00N 35°27' E 139°39'0 0.0
2018-Jan-18 17:30N 35°27' E 139°39'0 0.0
2018-Jan-18 17:00N 35°27' E 139°39'0 0.0
2018-Jan-18 16:30N 35°27' E 139°39'0 0.0
2018-Jan-18 16:00N 35°27' E 139°39'0 0.0
2018-Jan-18 15:30N 35°27' E 139°39'0 0.0
2018-Jan-18 15:01N 35°27' E 139°39'0 0.0
2018-Jan-18 14:30N 35°27' E 139°39'0 0.0
2018-Jan-18 14:00N 35°27' E 139°39'0 0.0
2018-Jan-18 13:30N 35°27' E 139°39'0 0.0
2018-Jan-18 13:00N 35°27' E 139°39'0 0.0
2018-Jan-18 12:31N 35°27' E 139°39'0 0.0
2018-Jan-18 12:00N 35°27' E 139°39'0 0.0
2018-Jan-18 11:30N 35°27' E 139°39'0 0.0
2018-Jan-18 11:00N 35°27' E 139°39'0 0.0
2018-Jan-18 10:30N 35°27' E 139°39'0 0.0
2018-Jan-18 10:00N 35°27' E 139°39'0 0.0
2018-Jan-18 09:30N 35°27' E 139°39'0 0.0
2018-Jan-18 09:01N 35°27' E 139°39'0 0.0
2018-Jan-18 08:30N 35°27' E 139°39'0 0.0
2018-Jan-18 08:00N 35°27' E 139°39'0 0.0
2018-Jan-18 07:30N 35°27' E 139°39'0 0.0
2018-Jan-18 07:00N 35°27' E 139°39'0 0.0
2018-Jan-18 06:30N 35°27' E 139°39'0 0.0
2018-Jan-18 06:00N 35°27' E 139°39'0 0.0
2018-Jan-18 05:30N 35°27' E 139°39'0 0.0
2018-Jan-18 05:00N 35°27' E 139°39'0 0.0
2018-Jan-18 04:30N 35°27' E 139°39'0 0.0
2018-Jan-18 04:00N 35°27' E 139°39'0 0.0
2018-Jan-18 03:30N 35°27' E 139°39'0 0.0
2018-Jan-18 03:00N 35°27' E 139°39'1 2.1
2018-Jan-18 02:30N 35°27' E 139°40'2 4.3
2018-Jan-18 02:01N 35°25' E 139°41'0 0.4
2018-Jan-18 01:30N 35°25' E 139°41'2 4.3
2018-Jan-18 01:00N 35°27' E 139°40'1 0.8
2018-Jan-18 00:00N 35°27' E 139°39'0 0.0
2018-Jan-17 23:57N 35°27' E 139°39'  
2018-Jan-12 15:00N 35°27' E 139°39'0 0.0
2018-Jan-12 14:30N 35°27' E 139°39'0 0.0
2018-Jan-12 14:00N 35°27' E 139°39'0 0.0
2018-Jan-12 13:31N 35°27' E 139°39'0 0.0
2018-Jan-12 13:00N 35°27' E 139°39'0 0.0
2018-Jan-12 12:30N 35°27' E 139°39'0 0.0
2018-Jan-12 12:01N 35°27' E 139°39'0 0.0
2018-Jan-12 11:30N 35°27' E 139°39'0 0.0
2018-Jan-12 11:00N 35°27' E 139°39'0 0.0
2018-Jan-12 10:30N 35°27' E 139°39'0 0.0
2018-Jan-12 10:00N 35°27' E 139°39'0 0.0
2018-Jan-12 09:30N 35°27' E 139°39'0 0.0
2018-Jan-12 09:00N 35°27' E 139°39'0 0.0
2018-Jan-12 08:30N 35°27' E 139°39'0 0.0
2018-Jan-12 08:00N 35°27' E 139°39'0 0.0
2018-Jan-12 07:30N 35°27' E 139°39'0 0.0
2018-Jan-12 07:01N 35°27' E 139°39'0 0.0
2018-Jan-12 06:30N 35°27' E 139°39'0 0.0
2018-Jan-12 06:00N 35°27' E 139°39'0 0.0
2018-Jan-12 05:31N 35°27' E 139°39'0 0.0
2018-Jan-12 05:00N 35°27' E 139°39'0 0.0
2018-Jan-12 04:31N 35°27' E 139°39'3 5.7
2018-Jan-12 04:00N 35°25' E 139°41'0 0.3
2018-Jan-12 03:31N 35°25' E 139°41'1 2.0
2018-Jan-12 03:00N 35°25' E 139°42'0 0.7
2018-Jan-12 02:30N 35°25' E 139°42'1 2.5
2018-Jan-12 02:00N 35°24' E 139°41'2 4.3
2018-Jan-12 01:30N 35°25' E 139°39'0 0.1
2018-Jan-12 01:00N 35°25' E 139°39'1 1.6
2018-Jan-12 00:30N 35°24' E 139°40'2 3.4
2018-Jan-12 00:01N 35°23' E 139°41'3 5.1
2018-Jan-11 23:31N 35°25' E 139°42'1 2.8
2018-Jan-11 23:00N 35°26' E 139°42'2 4.1
2018-Jan-11 22:30N 35°28' E 139°41'0 0.8
2018-Jan-11 22:01N 35°28' E 139°41'3 5.0
2018-Jan-11 21:30N 35°27' E 139°43'0 1.0
2018-Jan-11 21:00N 35°26' E 139°43'4 7.3
2018-Jan-11 20:30N 35°27' E 139°39'0 0.0
2018-Jan-11 20:00N 35°27' E 139°39'0 0.0
2018-Jan-11 19:31N 35°27' E 139°39'0 0.0
2018-Jan-11 19:00N 35°27' E 139°39'0 0.0
2018-Jan-11 18:30N 35°27' E 139°39'0 0.0
2018-Jan-11 18:00N 35°27' E 139°39'0 0.0
2018-Jan-11 17:31N 35°27' E 139°39'0 0.0
2018-Jan-11 17:01N 35°27' E 139°39'0 0.0
2018-Jan-11 16:30N 35°27' E 139°39'0 0.0
2018-Jan-11 16:00N 35°27' E 139°39'0 0.0
2018-Jan-11 15:30N 35°27' E 139°39'0 0.0
2018-Jan-11 15:01N 35°27' E 139°39'0 0.0
2018-Jan-11 14:30N 35°27' E 139°39'0 0.0
2018-Jan-11 14:00N 35°27' E 139°39'0 0.0
2018-Jan-11 13:30N 35°27' E 139°39'0 0.0
2018-Jan-11 13:00N 35°27' E 139°39'0 0.0
2018-Jan-11 12:30N 35°27' E 139°39'0 0.0
2018-Jan-11 12:01N 35°27' E 139°39'0 0.0
2018-Jan-11 11:31N 35°27' E 139°39'0 0.0
2018-Jan-11 11:01N 35°27' E 139°39'0 0.0
2018-Jan-11 10:31N 35°27' E 139°39'0 0.0
2018-Jan-11 10:00N 35°27' E 139°39'0 0.0
2018-Jan-11 09:30N 35°27' E 139°39'0 0.0
2018-Jan-11 09:00N 35°27' E 139°39'0 0.0
2018-Jan-11 08:31N 35°27' E 139°39'2 5.0
2018-Jan-11 08:00N 35°29' E 139°41'5 9.2
2018-Jan-11 07:31N 35°31' E 139°46'0 0.1
2018-Jan-11 07:00N 35°31' E 139°46'4 7.4
2018-Jan-11 06:31N 35°29' E 139°42'3 6.8
2018-Jan-11 06:01N 35°27' E 139°39'0 0.0
2018-Jan-11 05:31N 35°27' E 139°39'0 0.0
2018-Jan-11 05:01N 35°27' E 139°39'3 6.0
2018-Jan-11 04:31N 35°29' E 139°42'4 7.3
2018-Jan-11 04:01N 35°31' E 139°46'2 3.3
2018-Jan-11 03:30N 35°30' E 139°44'5 9.2
2018-Jan-11 03:01N 35°27' E 139°39'0 0.0
2018-Jan-11 02:31N 35°27' E 139°39'0 0.0
2018-Jan-11 02:01N 35°27' E 139°39'2 4.4
2018-Jan-11 01:30N 35°29' E 139°41'4 8.4
2018-Jan-11 01:00N 35°31' E 139°46'0 0.4
2018-Jan-11 00:30N 35°31' E 139°46'3 6.8
2018-Jan-11 00:01N 35°28' E 139°48'510.5
2018-Jan-10 23:31N 35°27' E 139°41'2 4.3
2018-Jan-10 23:00N 35°27' E 139°39'0 0.0
2018-Jan-10 22:31N 35°27' E 139°39'0 0.0
2018-Jan-10 22:01N 35°27' E 139°39'0 0.0
2018-Jan-10 21:31N 35°27' E 139°39'0 0.0
2018-Jan-10 21:01N 35°27' E 139°39'0 0.0
2018-Jan-10 20:30N 35°27' E 139°39'0 0.0
2018-Jan-10 20:00N 35°27' E 139°39'0 0.0
2018-Jan-10 19:31N 35°27' E 139°39'0 0.0
2018-Jan-10 19:01N 35°27' E 139°39'0 0.0
2018-Jan-10 18:30N 35°27' E 139°39'0 0.0
2018-Jan-10 18:01N 35°27' E 139°39'0 0.0
2018-Jan-10 17:31N 35°27' E 139°39'0 0.0
2018-Jan-10 17:00N 35°27' E 139°39'0 0.0
2018-Jan-10 16:31N 35°27' E 139°39'0 0.0
2018-Jan-10 16:01N 35°27' E 139°39'0 0.0
2018-Jan-10 15:31N 35°27' E 139°39'0 0.0
2018-Jan-10 15:01N 35°27' E 139°39'0 0.0
2018-Jan-10 14:31N 35°27' E 139°39'0 0.0
2018-Jan-10 14:00N 35°27' E 139°39'0 0.0
2018-Jan-10 13:31N 35°27' E 139°39'0 0.0
2018-Jan-10 13:01N 35°27' E 139°39'  
Track history (hours):
 
Tides and Currents Weather Stations Pressure Air Temp Water Temp Dewpoint Dewpoint Depression Visibility Wind Speed Wind Dir Waves Ship Positions

Yoshino Maru

Last reported at 2018-Jan-20 13:00 UTC. Time now 2018-Jan-20 13:11 UTC.
Position N 35°27' E 139°39'.

Length 30 m.

Type: Tug. MMSI: 431003749.

Date/timePositionNaut miles runAvg speedWind from/ knotsBaromVisibWave heightAir tempDewpointWater temp
2018-Jan-20 13:00N 35°27' E 139°39'0 0.0
2018-Jan-20 12:30N 35°27' E 139°39'0 0.0
2018-Jan-20 12:00N 35°27' E 139°39'0 0.0
2018-Jan-20 11:30N 35°27' E 139°39'0 0.0
2018-Jan-20 11:01N 35°27' E 139°39'0 0.0
2018-Jan-20 10:30N 35°27' E 139°39'0 0.0
2018-Jan-20 10:00N 35°27' E 139°39'0 0.0
2018-Jan-20 09:30N 35°27' E 139°39'0 0.0
2018-Jan-20 09:00N 35°27' E 139°39'0 0.0
2018-Jan-20 08:30N 35°27' E 139°39'0 0.0
2018-Jan-20 08:00N 35°27' E 139°39'0 0.0
2018-Jan-20 07:31N 35°27' E 139°39'0 0.0
2018-Jan-20 07:00N 35°27' E 139°39'0 0.0
2018-Jan-20 06:30N 35°27' E 139°39'0 0.0
2018-Jan-20 06:00N 35°27' E 139°39'0 0.0
2018-Jan-20 05:30N 35°27' E 139°39'1 2.2
2018-Jan-20 05:00N 35°27' E 139°40'4 7.9
2018-Jan-20 04:30N 35°24' E 139°41'1 1.4
2018-Jan-20 04:00N 35°24' E 139°41'1 3.0
2018-Jan-20 03:31N 35°23' E 139°41'1 1.3
2018-Jan-20 03:00N 35°23' E 139°41'0 0.0
2018-Jan-20 02:30N 35°23' E 139°41'2 4.5
2018-Jan-20 02:00N 35°25' E 139°39'0 0.1
2018-Jan-20 01:30N 35°24' E 139°39'0 1.0
2018-Jan-20 01:00N 35°24' E 139°39'2 4.4
2018-Jan-20 00:30N 35°23' E 139°41'1 1.3
2018-Jan-20 00:01N 35°23' E 139°41'0 0.0
2018-Jan-19 23:30N 35°23' E 139°41'1 2.8
2018-Jan-19 23:00N 35°24' E 139°42'2 3.4
2018-Jan-19 22:30N 35°25' E 139°41'1 2.0
2018-Jan-19 22:01N 35°25' E 139°42'1 1.1
2018-Jan-19 21:31N 35°26' E 139°42'3 6.1
2018-Jan-19 21:00N 35°27' E 139°39'0 0.0
2018-Jan-19 20:30N 35°27' E 139°39'0 0.0
2018-Jan-19 20:01N 35°27' E 139°39'0 0.0
2018-Jan-19 19:30N 35°27' E 139°39'0 0.0
2018-Jan-19 19:00N 35°27' E 139°39'0 0.0
2018-Jan-19 18:30N 35°27' E 139°39'0 0.0
2018-Jan-19 18:00N 35°27' E 139°39'0 0.0
2018-Jan-19 17:30N 35°27' E 139°39'0 0.0
2018-Jan-19 17:00N 35°27' E 139°39'0 0.0
2018-Jan-19 16:30N 35°27' E 139°39'0 0.0
2018-Jan-19 16:00N 35°27' E 139°39'0 0.0
2018-Jan-19 15:30N 35°27' E 139°39'0 0.0
2018-Jan-19 15:00N 35°27' E 139°39'0 0.0
2018-Jan-19 14:30N 35°27' E 139°39'0 0.0
2018-Jan-19 14:01N 35°27' E 139°39'0 0.0
2018-Jan-19 13:30N 35°27' E 139°39'0 0.0
2018-Jan-19 13:00N 35°27' E 139°39'0 0.0
2018-Jan-19 12:30N 35°27' E 139°39'0 0.0
2018-Jan-19 12:00N 35°27' E 139°39'0 0.0
2018-Jan-19 11:30N 35°27' E 139°39'0 0.0
2018-Jan-19 11:00N 35°27' E 139°39'0 0.0
2018-Jan-19 10:30N 35°27' E 139°39'0 0.0
2018-Jan-19 10:00N 35°27' E 139°39'0 0.0
2018-Jan-19 09:30N 35°27' E 139°39'0 0.0
2018-Jan-19 09:01N 35°27' E 139°39'0 0.0
2018-Jan-19 08:30N 35°27' E 139°39'2 3.8
2018-Jan-19 08:00N 35°27' E 139°41'0 0.1
2018-Jan-19 07:31N 35°27' E 139°41'2 3.9
2018-Jan-19 07:01N 35°27' E 139°39'0 0.0
2018-Jan-19 06:30N 35°27' E 139°39'0 0.0
2018-Jan-19 06:01N 35°27' E 139°39'0 0.0
2018-Jan-19 05:30N 35°27' E 139°39'0 0.0
2018-Jan-19 05:00N 35°27' E 139°39'0 0.0
2018-Jan-19 04:31N 35°27' E 139°39'0 0.0
2018-Jan-19 04:00N 35°27' E 139°39'0 0.0
2018-Jan-19 03:30N 35°27' E 139°39'0 0.0
2018-Jan-19 03:01N 35°27' E 139°39'0 0.0
2018-Jan-19 02:30N 35°27' E 139°39'0 0.0
2018-Jan-19 02:00N 35°27' E 139°39'4 8.1
2018-Jan-19 01:30N 35°26' E 139°43'612.3
2018-Jan-19 01:01N 35°29' E 139°49'2 4.2
2018-Jan-19 00:30N 35°29' E 139°52'5 9.5
2018-Jan-19 00:00N 35°25' E 139°48'510.5
2018-Jan-18 23:30N 35°21' E 139°45'5 9.1
2018-Jan-18 23:00N 35°16' E 139°46'5 9.8
2018-Jan-18 22:30N 35°12' E 139°47'0 0.1
2018-Jan-18 22:00N 35°11' E 139°47'5 9.9
2018-Jan-18 21:30N 35°16' E 139°45'5 9.8
2018-Jan-18 21:01N 35°20' E 139°41'5 9.8
2018-Jan-18 20:31N 35°25' E 139°42'4 7.2
2018-Jan-18 20:00N 35°27' E 139°39'0 0.0
2018-Jan-18 19:30N 35°27' E 139°39'0 0.0
2018-Jan-18 19:00N 35°27' E 139°39'0 0.0
2018-Jan-18 18:30N 35°27' E 139°39'0 0.0
2018-Jan-18 18:00N 35°27' E 139°39'0 0.0
2018-Jan-18 17:30N 35°27' E 139°39'0 0.0
2018-Jan-18 17:00N 35°27' E 139°39'0 0.0
2018-Jan-18 16:30N 35°27' E 139°39'0 0.0
2018-Jan-18 16:00N 35°27' E 139°39'0 0.0
2018-Jan-18 15:30N 35°27' E 139°39'0 0.0
2018-Jan-18 15:01N 35°27' E 139°39'0 0.0
2018-Jan-18 14:30N 35°27' E 139°39'0 0.0
2018-Jan-18 14:00N 35°27' E 139°39'0 0.0
2018-Jan-18 13:30N 35°27' E 139°39'0 0.0
2018-Jan-18 13:00N 35°27' E 139°39'0 0.0
2018-Jan-18 12:31N 35°27' E 139°39'0 0.0
2018-Jan-18 12:00N 35°27' E 139°39'0 0.0
2018-Jan-18 11:30N 35°27' E 139°39'0 0.0
2018-Jan-18 11:00N 35°27' E 139°39'0 0.0
2018-Jan-18 10:30N 35°27' E 139°39'0 0.0
2018-Jan-18 10:00N 35°27' E 139°39'0 0.0
2018-Jan-18 09:30N 35°27' E 139°39'0 0.0
2018-Jan-18 09:01N 35°27' E 139°39'0 0.0
2018-Jan-18 08:30N 35°27' E 139°39'0 0.0
2018-Jan-18 08:00N 35°27' E 139°39'0 0.0
2018-Jan-18 07:30N 35°27' E 139°39'0 0.0
2018-Jan-18 07:00N 35°27' E 139°39'0 0.0
2018-Jan-18 06:30N 35°27' E 139°39'0 0.0
2018-Jan-18 06:00N 35°27' E 139°39'0 0.0
2018-Jan-18 05:30N 35°27' E 139°39'0 0.0
2018-Jan-18 05:00N 35°27' E 139°39'0 0.0
2018-Jan-18 04:30N 35°27' E 139°39'0 0.0
2018-Jan-18 04:00N 35°27' E 139°39'0 0.0
2018-Jan-18 03:30N 35°27' E 139°39'0 0.0
2018-Jan-18 03:00N 35°27' E 139°39'1 2.1
2018-Jan-18 02:30N 35°27' E 139°40'2 4.3
2018-Jan-18 02:01N 35°25' E 139°41'0 0.4
2018-Jan-18 01:30N 35°25' E 139°41'2 4.3
2018-Jan-18 01:00N 35°27' E 139°40'1 0.8
2018-Jan-18 00:00N 35°27' E 139°39'0 0.0
2018-Jan-17 23:57N 35°27' E 139°39'  
2018-Jan-12 15:00N 35°27' E 139°39'0 0.0
2018-Jan-12 14:30N 35°27' E 139°39'0 0.0
2018-Jan-12 14:00N 35°27' E 139°39'0 0.0
2018-Jan-12 13:31N 35°27' E 139°39'0 0.0
2018-Jan-12 13:00N 35°27' E 139°39'0 0.0
2018-Jan-12 12:30N 35°27' E 139°39'0 0.0
2018-Jan-12 12:01N 35°27' E 139°39'0 0.0
2018-Jan-12 11:30N 35°27' E 139°39'0 0.0
2018-Jan-12 11:00N 35°27' E 139°39'0 0.0
2018-Jan-12 10:30N 35°27' E 139°39'0 0.0
2018-Jan-12 10:00N 35°27' E 139°39'0 0.0
2018-Jan-12 09:30N 35°27' E 139°39'0 0.0
2018-Jan-12 09:00N 35°27' E 139°39'0 0.0
2018-Jan-12 08:30N 35°27' E 139°39'0 0.0
2018-Jan-12 08:00N 35°27' E 139°39'0 0.0
2018-Jan-12 07:30N 35°27' E 139°39'0 0.0
2018-Jan-12 07:01N 35°27' E 139°39'0 0.0
2018-Jan-12 06:30N 35°27' E 139°39'0 0.0
2018-Jan-12 06:00N 35°27' E 139°39'0 0.0
2018-Jan-12 05:31N 35°27' E 139°39'0 0.0
2018-Jan-12 05:00N 35°27' E 139°39'0 0.0
2018-Jan-12 04:31N 35°27' E 139°39'3 5.7
2018-Jan-12 04:00N 35°25' E 139°41'0 0.3
2018-Jan-12 03:31N 35°25' E 139°41'1 2.0
2018-Jan-12 03:00N 35°25' E 139°42'0 0.7
2018-Jan-12 02:30N 35°25' E 139°42'1 2.5
2018-Jan-12 02:00N 35°24' E 139°41'2 4.3
2018-Jan-12 01:30N 35°25' E 139°39'0 0.1
2018-Jan-12 01:00N 35°25' E 139°39'1 1.6
2018-Jan-12 00:30N 35°24' E 139°40'2 3.4
2018-Jan-12 00:01N 35°23' E 139°41'3 5.1
2018-Jan-11 23:31N 35°25' E 139°42'1 2.8
2018-Jan-11 23:00N 35°26' E 139°42'2 4.1
2018-Jan-11 22:30N 35°28' E 139°41'0 0.8
2018-Jan-11 22:01N 35°28' E 139°41'3 5.0
2018-Jan-11 21:30N 35°27' E 139°43'0 1.0
2018-Jan-11 21:00N 35°26' E 139°43'4 7.3
2018-Jan-11 20:30N 35°27' E 139°39'0 0.0
2018-Jan-11 20:00N 35°27' E 139°39'0 0.0
2018-Jan-11 19:31N 35°27' E 139°39'0 0.0
2018-Jan-11 19:00N 35°27' E 139°39'0 0.0
2018-Jan-11 18:30N 35°27' E 139°39'0 0.0
2018-Jan-11 18:00N 35°27' E 139°39'0 0.0
2018-Jan-11 17:31N 35°27' E 139°39'0 0.0
2018-Jan-11 17:01N 35°27' E 139°39'0 0.0
2018-Jan-11 16:30N 35°27' E 139°39'0 0.0
2018-Jan-11 16:00N 35°27' E 139°39'0 0.0
2018-Jan-11 15:30N 35°27' E 139°39'0 0.0
2018-Jan-11 15:01N 35°27' E 139°39'0 0.0
2018-Jan-11 14:30N 35°27' E 139°39'0 0.0
2018-Jan-11 14:00N 35°27' E 139°39'0 0.0
2018-Jan-11 13:30N 35°27' E 139°39'0 0.0
2018-Jan-11 13:00N 35°27' E 139°39'0 0.0
2018-Jan-11 12:30N 35°27' E 139°39'0 0.0
2018-Jan-11 12:01N 35°27' E 139°39'0 0.0
2018-Jan-11 11:31N 35°27' E 139°39'0 0.0
2018-Jan-11 11:01N 35°27' E 139°39'0 0.0
2018-Jan-11 10:31N 35°27' E 139°39'0 0.0
2018-Jan-11 10:00N 35°27' E 139°39'0 0.0
2018-Jan-11 09:30N 35°27' E 139°39'0 0.0
2018-Jan-11 09:00N 35°27' E 139°39'0 0.0
2018-Jan-11 08:31N 35°27' E 139°39'2 5.0
2018-Jan-11 08:00N 35°29' E 139°41'5 9.2
2018-Jan-11 07:31N 35°31' E 139°46'0 0.1
2018-Jan-11 07:00N 35°31' E 139°46'4 7.4
2018-Jan-11 06:31N 35°29' E 139°42'3 6.8
2018-Jan-11 06:01N 35°27' E 139°39'0 0.0
2018-Jan-11 05:31N 35°27' E 139°39'0 0.0
2018-Jan-11 05:01N 35°27' E 139°39'3 6.0
2018-Jan-11 04:31N 35°29' E 139°42'4 7.3
2018-Jan-11 04:01N 35°31' E 139°46'2 3.3
2018-Jan-11 03:30N 35°30' E 139°44'5 9.2
2018-Jan-11 03:01N 35°27' E 139°39'0 0.0
2018-Jan-11 02:31N 35°27' E 139°39'0 0.0
2018-Jan-11 02:01N 35°27' E 139°39'2 4.4
2018-Jan-11 01:30N 35°29' E 139°41'4 8.4
2018-Jan-11 01:00N 35°31' E 139°46'0 0.4
2018-Jan-11 00:30N 35°31' E 139°46'3 6.8
2018-Jan-11 00:01N 35°28' E 139°48'510.5
2018-Jan-10 23:31N 35°27' E 139°41'2 4.3
2018-Jan-10 23:00N 35°27' E 139°39'0 0.0
2018-Jan-10 22:31N 35°27' E 139°39'0 0.0
2018-Jan-10 22:01N 35°27' E 139°39'0 0.0
2018-Jan-10 21:31N 35°27' E 139°39'0 0.0
2018-Jan-10 21:01N 35°27' E 139°39'0 0.0
2018-Jan-10 20:30N 35°27' E 139°39'0 0.0
2018-Jan-10 20:00N 35°27' E 139°39'0 0.0
2018-Jan-10 19:31N 35°27' E 139°39'0 0.0
2018-Jan-10 19:01N 35°27' E 139°39'0 0.0
2018-Jan-10 18:30N 35°27' E 139°39'0 0.0
2018-Jan-10 18:01N 35°27' E 139°39'0 0.0
2018-Jan-10 17:31N 35°27' E 139°39'0 0.0
2018-Jan-10 17:00N 35°27' E 139°39'0 0.0
2018-Jan-10 16:31N 35°27' E 139°39'0 0.0
2018-Jan-10 16:01N 35°27' E 139°39'0 0.0
2018-Jan-10 15:31N 35°27' E 139°39'0 0.0
2018-Jan-10 15:01N 35°27' E 139°39'0 0.0
2018-Jan-10 14:31N 35°27' E 139°39'0 0.0
2018-Jan-10 14:00N 35°27' E 139°39'0 0.0
2018-Jan-10 13:31N 35°27' E 139°39'0 0.0
2018-Jan-10 13:01N 35°27' E 139°39'  

Dump ship's entire track history